x

Los Angeles Pier F, Ca - 9410670 (pfxc1) Weather Station

10:30 - Tue 3rd May 2016 All times are PDT. -7 hours from GMT.

  • Wind
    13mph, 14mph gusts
  • Aire Temp 65°f
  • Sea Pressure 1014.4mb
  • Los Angeles Pier F, Ca - 9410670
  • Los Angeles Pier F, Ca - 9410670

More Historic Weather Station data

Upgrade to MSW Pro to gain access to the past 30 days of data for over 8000 Wavebouys and Weather Stations around the globe.

Join Pro

Comparision Forecast

View Surf forecast
   
mar 05/03 10:30 13 14 mph 1014.4mb 65f
10:24 13 14 mph 1014.4mb 65f
10:18 11 13 mph 1014.4mb 66f
10:12 11 13 mph 1014.5mb 66f
10:06 9 11 mph 1014.5mb 67f
10:00 10 11 mph 1014.7mb 66f
9:54 10 13 mph 1014.7mb 66f
9:48 10 13 mph 1014.7mb 65f
9:42 11 13 mph 1014.7mb 65f
9:36 10 11 mph 1014.7mb 64f
9:30 9 10 mph 1014.7mb 63f
9:24 8 9 mph 1014.4mb 61f
9:18 7
mph
1014.4mb 62f
9:12 6 7 mph 1014.4mb 64f
9:06 3 5 mph 1014.8mb 65f
9:00 5
mph
1014.5mb 63f
8:54 5 6 mph 1014.5mb 65f
8:48 6
mph
1014.8mb 66f
8:42 5
mph
1014.8mb 63f
8:36 3 5 mph 1014.4mb 62f
8:30 3
mph
1014.3mb 63f
8:24 2 3 mph 1014.5mb 65f
8:18 1 2 mph 1014.5mb 65f
8:12  -  2 mph 1014.5mb 66f
8:06  -  2 mph 1014.5mb 66f
8:00 1 3 mph 1014.5mb 66f
7:54 1 2 mph 1014.5mb 65f
7:48 1 3 mph 1014.5mb -
7:42 2 3 mph - -
7:36  -  2 mph - -
7:30  -  2 mph - -
7:24 2 3 mph 1014.7mb -
7:18 1 5 mph 1014.7mb 63f
7:12 1 5 mph 1014.6mb 63f
7:06 1 3 mph 1014.5mb 63f
7:00  -  2 mph 1014.5mb 62f
6:54 3
mph
1014.4mb 62f
6:48 2 3 mph 1014.4mb 61f
6:42 2
mph
1014.3mb 61f
6:36 1 2 mph 1014.3mb 60f
6:30 2 3 mph 1014.2mb 60f
6:24 3 5 mph 1014.2mb 60f
6:18 5 6 mph 1014.1mb 60f
6:12 2 5 mph 1013.9mb 60f
6:06 2 3 mph 1013.8mb 59f
6:00 1 2 mph 1013.7mb 59f
5:54  -  1 mph 1013.8mb 59f
5:48  -  1 mph 1013.8mb 59f
5:42 1
mph
1013.7mb 59f
5:36 1
mph
1013.7mb 59f
5:30 2
mph
1013.7mb 59f
5:24 2 3 mph 1013.7mb 59f
5:18 2 3 mph 1013.7mb 59f
5:12 3 5 mph 1013.7mb 59f
5:06 3
mph
1013.7mb 60f
5:00 2 5 mph 1013.7mb 59f
4:54 1 2 mph 1013.7mb 59f
4:48 2
mph
1013.7mb 59f
4:42 1 2 mph 1013.7mb 59f
4:36  -  1 mph 1013.7mb 59f
4:30  -  1 mph 1013.7mb 59f
4:24  -  mph 1013.7mb 59f
4:18  -  2 mph 1013.7mb 59f
4:12 2
mph
1013.7mb 59f
4:06 2 3 mph 1013.7mb 60f
4:00 2
mph
1013.7mb 60f
3:54 2 3 mph 1013.7mb 60f
3:48 3 5 mph 1013.7mb 60f
3:42 3 5 mph 1013.7mb 60f
3:36 5 6 mph 1013.7mb 60f
3:30 5 6 mph 1013.7mb 60f
3:24 6
mph
1013.7mb 60f
3:18 6 7 mph 1013.7mb 60f
3:12 7 8 mph 1013.7mb 60f
3:06 7 8 mph 1013.7mb 60f
3:00 7 9 mph 1013.7mb 60f
2:54 8 10 mph 1013.8mb 60f
2:48 8 10 mph 1013.8mb 60f
2:42 8 9 mph 1013.8mb 60f
2:36 7 8 mph 1013.8mb 60f
2:30 7 8 mph 1013.8mb 60f
2:24 7
mph
1013.9mb 60f
2:18 6 7 mph 1014mb 60f
2:12 6
mph
1014.1mb 60f
2:06 6 7 mph 1014.2mb 60f
2:00 6 7 mph 1014.2mb 60f
1:54 3 6 mph 1014.2mb 61f
1:48 3 5 mph 1014.2mb 61f
1:42 3 5 mph 1014.2mb 61f
1:36 3 6 mph 1014.3mb 61f
1:30 5 6 mph 1014.4mb 61f
1:24 3 6 mph 1014.5mb 61f
1:18 3 5 mph 1014.5mb 61f
1:12 3 5 mph 1014.5mb 61f
1:06 3 5 mph 1014.6mb 61f
1:00  -  1 mph 1014.6mb 61f
12:54  -  1 mph 1014.7mb 61f
12:48 1 2 mph 1014.6mb 61f
12:42 3 6 mph 1014.7mb 61f
12:36 5 6 mph 1014.7mb 61f
12:30 6 7 mph 1014.7mb 60f
12:24 7 9 mph 1014.7mb 60f
12:18 8 9 mph 1014.8mb 60f
12:12 8 10 mph 1014.7mb 60f
12:06 9 11 mph 1014.8mb 60f
12:00 8 9 mph 1014.8mb 61f
lun 05/02 11:54 8 10 mph 1014.8mb 61f
11:48 8 9 mph 1014.8mb 61f
11:42 8 9 mph 1014.8mb 61f
11:36 6 8 mph 1014.8mb 61f
11:30 7 8 mph 1014.7mb 61f
11:24 6 7 mph 1014.7mb 61f
11:18 6 7 mph 1014.8mb 61f
11:12 6 8 mph 1014.7mb 61f
11:06 5 6 mph 1014.8mb 61f
11:00 5 6 mph 1014.7mb 61f
10:54 6 8 mph 1014.8mb 61f
10:48 6 8 mph 1014.8mb 61f
10:42 6 10 mph 1014.9mb 61f
10:36 10 11 mph 1014.8mb 61f
10:30 9 11 mph 1014.9mb 61f
10:24 6 9 mph 1014.8mb 61f
10:18 6
mph
1014.8mb 61f
10:12 6 8 mph 1014.7mb 61f
10:06 6 9 mph 1014.7mb 61f
10:00 8 9 mph 1014.7mb 61f
9:54 10 11 mph 1014.7mb 61f
9:48 10 11 mph 1014.7mb 61f
9:42 6 9 mph 1014.7mb 61f
9:36 5 6 mph 1014.7mb 61f
9:30 6 7 mph 1014.7mb 61f
9:24 7
mph
1014.7mb 61f
9:06 9 10 mph 1014.4mb 61f
9:00 9 10 mph 1014.3mb 61f
8:54 9 10 mph 1014.3mb 61f
8:48 9 10 mph 1014.2mb 61f
8:42 9 10 mph 1014.1mb 62f
8:36 9 10 mph 1014.1mb 62f
8:30 5 8 mph 1014.1mb 63f
8:24  -  2 mph 1013.9mb 63f
8:18 3 5 mph 1013.9mb 63f
8:12 3 5 mph 1013.9mb 63f
8:06 5 7 mph 1013.8mb 63f
8:00 7 9 mph 1013.8mb 63f
7:54 8 9 mph 1013.8mb 63f
7:48  -  mph 1013.7mb -
7:42  -  mph 1013.6mb -
7:36  -  mph 1013.6mb -
7:30 5 7 mph 1013.5mb 65f
7:24 1 5 mph 1013.4mb 65f
7:18  -  mph 1013.4mb 64f
7:12  -  mph 1013.3mb 64f
7:06  -  mph 1013.2mb 64f
7:00  -  mph 1013.2mb 65f
6:54  -  mph 1013.2mb 66f
6:48 5 6 mph 1013.1mb -
6:42 6 9 mph 1013.1mb -
6:36 7 9 mph 1013.1mb -
6:30 8 10 mph 1013.1mb -
6:24 10 13 mph 1012.9mb -
6:18  -  mph 1012.8mb 69f
6:12  -  mph 1013mb 70f
6:06  -  mph 1012.9mb 70f
6:00  -  mph 1012.8mb 70f
5:54  -  mph 1012.7mb 71f
5:48 10 11 mph 1012.7mb -
5:42 8 9 mph 1012.8mb -
5:36 7 8 mph 1012.9mb -
5:30 9 10 mph 1012.9mb 72f
5:24 8 10 mph 1012.9mb 72f
5:18  -  mph 1012.9mb 73f
5:12  -  mph 1013mb 73f
5:06  -  mph 1013.1mb 72f
5:00  -  mph 1013.1mb 73f
4:54  -  mph 1013.1mb 72f
4:48  -  mph 1013mb -
4:42  -  mph 1013.1mb -
4:36  -  mph 1013.1mb -
4:30  -  mph 1013.2mb -
4:24  -  mph 1013.4mb -
4:18 7 9 mph 1013.3mb -
4:12 8 10 mph 1013.3mb -
4:06 7 8 mph 1013.4mb -
4:00 7 9 mph 1013.4mb 71f
3:54 5 7 mph 1013.4mb 72f
3:48  -  mph 1013.6mb -
3:42  -  mph 1013.6mb -
3:36  -  mph 1013.7mb -
3:30  -  mph 1013.7mb -
3:24  -  mph 1013.7mb -
3:18  -  mph 1013.7mb 70f
3:12  -  mph 1013.8mb 71f
3:06  -  mph 1014.1mb 73f
3:00  -  mph 1014.1mb 72f
2:54  -  mph 1014.1mb 72f
2:48  -  mph 1014.2mb -
2:42  -  mph 1014.3mb -
2:36  -  mph 1014.3mb -
2:30 11 14 mph 1014.3mb 71f
2:24 13 15 mph 1014.4mb 70f
2:18 13 16 mph 1014.4mb 70f
2:12 13 16 mph 1014.5mb 71f
2:06 13 14 mph 1014.5mb 71f
2:00 13 15 mph 1014.6mb 70f
1:54 13 16 mph 1014.5mb 71f
1:48 13 16 mph 1014.6mb 71f
1:42 11 15 mph 1014.7mb 71f
1:36 13 14 mph 1014.7mb 71f
1:30 11 16 mph 1014.7mb 71f
1:24 10 14 mph 1014.7mb 73f
1:18 9 10 mph 1014.9mb 73f
1:12 8 9 mph 1015mb 74f
1:06 7 8 mph 1015mb 73f
1:00 6 7 mph 1015.1mb 73f
12:54 7 10 mph 1015.2mb 74f
12:48 6 8 mph 1015.3mb 73f
12:42 7 9 mph 1015.4mb 72f
12:36 6 8 mph 1015.4mb 69f
12:30 6 10 mph 1015.5mb 69f
12:24 6 10 mph 1015.5mb 70f
12:18 7 10 mph 1015.8mb 71f
12:12 7 11 mph 1015.7mb 68f
12:06 11 17 mph 1015.7mb 67f
12:00 14 16 mph 1015.7mb 67f
11:54 14 15 mph 1015.8mb 67f
11:48 15 16 mph 1015.8mb 66f
11:42 15 16 mph 1015.8mb 66f
11:36 14 16 mph 1016mb 66f
11:30 14 16 mph 1016.1mb 66f
11:24 14 16 mph 1016.1mb 66f
11:18 14 16 mph 1016.2mb 65f
11:12 14 16 mph 1016.3mb 65f
11:06 15 16 mph 1016.3mb 65f
11:00 15 16 mph 1016.4mb 65f
10:54 14 15 mph 1016.4mb 64f
10:48 14 15 mph 1016.5mb 64f
10:42 14 15 mph 1016.4mb 64f
10:36 13 14 mph 1016.5mb 64f
10:30 13 14 mph 1016.5mb 64f
10:24 13 14 mph 1016.6mb 64f
10:18 11 13 mph 1016.5mb 64f
10:12 11 13 mph 1016.6mb 65f
10:06 10 11 mph 1016.5mb 64f
10:00 9 10 mph 1016.5mb 65f
9:54 8 9 mph 1016.6mb 65f
9:48 8 9 mph 1016.6mb 65f
9:42 8
mph
1016.6mb 65f
9:36 7 8 mph 1016.7mb 64f
9:30 7
mph
1016.5mb 63f
9:24 6 7 mph 1016.6mb 64f
9:18 6 7 mph 1016.6mb 64f
9:12 6
mph
1016.7mb 64f
9:06 6
mph
1016.9mb 63f
9:00 6
mph
1016.8mb 61f
8:54 6 7 mph 1016.6mb 60f
8:48 5 6 mph 1016.7mb 61f
8:42 6 7 mph 1016.6mb 61f
8:36 6 7 mph 1016.4mb 62f
8:30 2 7 mph 1016.6mb 65f
8:24  -  1 mph 1016.6mb 64f
8:18 1 2 mph 1016.6mb 64f
8:12  -  1 mph 1016.6mb 64f
8:06 1
mph
1016.5mb 64f
8:00  -  1 mph - 64f
7:54  -  1 mph - 63f
7:48  -  1 mph 1016.5mb 63f
7:42  -  2 mph 1016.4mb 63f
7:36  -  1 mph 1016.3mb 62f
7:30 1 3 mph 1016.3mb 61f
7:24 2
mph
1016.3mb 61f
7:18 2 3 mph 1016.1mb 60f
7:12 2 3 mph 1016.1mb 60f
7:06 3 5 mph 1016.1mb 60f
7:00 3 5 mph 1016mb 60f
6:54 2 3 mph 1016mb 60f
6:48 3 5 mph 1015.9mb -
6:42 2 3 mph 1015.9mb -
6:36 2 3 mph 1015.9mb -
6:30 2 3 mph 1015.8mb 59f
6:24 2 3 mph 1015.8mb 59f
6:18 2
mph
1015.6mb 59f
6:12 1 2 mph 1015.5mb 59f
6:06 2 3 mph 1015.3mb 59f
6:00 2 3 mph 1015.3mb 59f
5:54  -  2 mph 1015.3mb 59f
5:48 1 2 mph 1015.3mb 59f
5:42 2
mph
1015.3mb 59f
5:36 2 3 mph 1015.3mb 59f
5:30 3 5 mph 1015.3mb 59f
5:24 2 5 mph 1015.3mb 59f
5:18 2 5 mph 1015.3mb 59f
5:12 1 3 mph 1015.3mb 59f
5:06  -  3 mph 1015.3mb 59f
5:00 2 3 mph 1015.3mb 59f
4:54 3 5 mph 1015.3mb 59f
4:48 5 6 mph 1015.3mb 59f
4:42 5 6 mph 1015.3mb 59f
4:36 3 5 mph 1015.3mb 59f
4:30 5 6 mph 1015.4mb 59f
4:24 5 6 mph 1015.4mb 59f
4:18 5 6 mph 1015.3mb 59f
4:12 3 6 mph 1015.3mb 59f
4:06 3 5 mph 1015.3mb 59f
4:00 3 5 mph 1015.3mb 59f
3:54 5
mph
1015.3mb 59f
3:48 5
mph
1015.4mb 59f
3:42 5
mph
1015.4mb 59f
3:36 3 5 mph 1015.3mb 59f
3:30 3 5 mph 1015.3mb 59f
3:24 3 5 mph 1015.3mb 59f
3:18 2 5 mph 1015.3mb 59f
3:12 2 3 mph 1015.3mb 59f
3:06 2 3 mph 1015.3mb 59f
3:00  -  1 mph 1015.3mb 59f
2:54  -  1 mph 1015.3mb 59f
2:48 1 2 mph 1015.3mb 59f
2:42 2 3 mph 1015.3mb 59f
2:36 3 7 mph 1015.3mb 60f
2:30 1 5 mph 1015.3mb 60f
2:24 5 7 mph 1015.3mb 60f
2:18 2 5 mph 1015.4mb 60f
2:12 2 3 mph 1015.4mb 59f
2:06 3 5 mph 1015.5mb 59f
2:00 3 5 mph 1015.5mb 59f
1:54 3 5 mph 1015.5mb 59f
1:48 3 5 mph 1015.6mb 59f
1:42 3 5 mph 1015.7mb 59f
1:36 3 5 mph 1015.8mb 59f
1:30 1 3 mph 1015.7mb 59f
1:24 2 5 mph 1015.8mb 59f
1:18 2 3 mph 1015.7mb 59f
1:12  -  2 mph 1015.7mb 59f
1:06 2 5 mph 1015.8mb 59f
1:00 2 5 mph 1015.8mb 60f
12:54 2 5 mph 1015.8mb 59f
12:48 3 6 mph 1015.8mb 59f
12:42 3 5 mph 1015.8mb 60f
12:36 3 5 mph 1015.8mb 60f
12:30 1 2 mph 1015.8mb 59f
12:24 2 5 mph 1015.8mb 59f
12:18 5 6 mph 1015.8mb 59f
12:12 5 6 mph 1015.8mb 59f
12:06 5 6 mph 1015.9mb 59f
12:00 5 6 mph 1015.8mb 59f
dom 05/01 11:54 5 6 mph 1015.9mb 59f
11:48 5 6 mph 1015.9mb -
11:42 5 6 mph 1015.8mb -
11:36 6 7 mph 1015.8mb -
11:30 6 7 mph 1015.8mb 59f
11:24 6 8 mph 1015.8mb 59f
11:18 6 7 mph 1015.8mb 59f
11:12 6 7 mph 1015.7mb 59f
11:06 6 7 mph 1015.7mb 59f
11:00 6 7 mph 1015.6mb 60f
10:54 5 7 mph 1015.6mb 60f
10:48 5 6 mph - -
10:42 5 6 mph - -
10:36 6 7 mph - -
10:30 6 7 mph 1015.5mb 60f
10:24 5 6 mph 1015.5mb 60f
10:18 5 7 mph 1015.4mb 60f
10:12 5 6 mph 1015.5mb 60f
10:06 5 6 mph 1015.5mb 60f
10:00 6 7 mph 1015.5mb 60f
9:54 6 7 mph 1015.3mb 60f
9:48 6 7 mph 1015.3mb 60f
9:42 6 7 mph 1015.2mb 60f
9:36 6 7 mph 1015.1mb 60f
9:30 5 6 mph 1015mb 60f
9:24 6
mph
1014.9mb 60f
9:18 6 7 mph 1014.8mb 60f
9:12 7
mph
1014.7mb 60f
9:06 6 8 mph 1014.7mb 61f
9:00 5 6 mph 1014.7mb 61f
8:54 5 6 mph 1014.7mb 61f
8:48 3 5 mph 1014.6mb 60f
8:42 2 5 mph 1014.5mb 60f
8:36 2
mph
1014.2mb 60f
8:30 1 2 mph 1014.2mb 60f
8:24 1
mph
1014mb 60f
8:18 1
mph
1013.9mb 60f
8:12 1 2 mph 1013.7mb 60f
8:06 2
mph
1013.7mb 60f
8:00  -  mph 1013.6mb 60f
7:54  -  mph 1013.5mb 60f
7:48  -  mph 1013.5mb -
7:42  -  mph 1013.3mb -
7:36  -  mph 1013.2mb -
7:30  -  mph 1013.1mb -
7:24  -  mph 1013mb -
7:18  -  mph 1012.8mb -
7:12  -  mph 1012.8mb -
7:06  -  mph 1012.7mb -
7:00 8 9 mph 1012.8mb 63f
6:54 6 8 mph 1012.8mb 64f
6:48  -  mph 1012.7mb -
6:42  -  mph 1012.7mb -
6:36  -  mph 1012.7mb -
6:30  -  mph 1012.7mb -
6:24  -  mph 1012.6mb -
6:18 8 9 mph 1012.6mb 64f
6:12 7 9 mph 1012.6mb 64f
6:06 8 10 mph 1012.6mb 64f
6:00  -  mph 1012.6mb 65f
5:54  -  mph 1012.6mb 65f
5:48  -  mph 1012.6mb 65f
5:42  -  mph 1012.6mb 65f
5:36  -  mph 1012.6mb 65f
5:30 11 15 mph 1012.7mb -
5:24 9 13 mph 1012.7mb -
5:18 11 16 mph 1012.8mb -
5:12 9 13 mph 1012.8mb -
5:06 10 11 mph 1012.7mb -
5:00 10 13 mph 1012.6mb -
4:54 9 11 mph 1012.5mb -
4:48  -  mph 1012.5mb -
4:42  -  mph 1012.6mb -
4:36  -  mph 1012.5mb -
4:30 9 11 mph 1012.5mb 61f
4:24 10 13 mph 1012.6mb 62f
4:18 10 11 mph 1012.6mb -
4:12 10 11 mph 1012.6mb -
4:06 9 10 mph 1012.6mb -
4:00  -  mph 1012.5mb 61f
3:54  -  mph 1012.6mb 61f
3:48  -  mph 1012.6mb -
3:42  -  mph 1012.6mb -
3:36  -  mph 1012.6mb -
3:30  -  mph 1012.7mb 61f
3:24  -  mph 1012.6mb 60f
3:18 9 11 mph 1012.7mb -
3:12 8 9 mph 1012.8mb -
3:06 8 10 mph 1012.9mb -
3:00 9
mph
1012.9mb 60f
2:54 9 10 mph 1012.9mb 60f
2:48  -  mph 1013mb -
2:42  -  mph 1013mb -
2:36  -  mph 1013.1mb -
2:30 9 11 mph 1013.1mb 60f
2:24 9 10 mph 1013.1mb 61f
2:18 9 10 mph 1013.2mb 61f
2:12 10 11 mph 1013.3mb 61f
2:06 10 11 mph 1013.3mb 61f
2:00 10 13 mph 1013.3mb 61f
1:54 11 13 mph 1013.4mb 61f
1:48 10 11 mph 1013.3mb 60f
1:42 11 13 mph 1013.4mb 60f
1:36 11 14 mph 1013.2mb 60f
1:30 11 13 mph 1013.1mb 60f
1:24 11 13 mph 1013.2mb 61f
1:18 13 14 mph 1013.1mb 61f
1:12 10 14 mph 1013.1mb 61f
1:06 10 13 mph 1013.1mb 61f
1:00 10 11 mph 1013mb 61f
12:54 10 11 mph 1013.1mb 62f
12:48 11 13 mph 1013.1mb 61f
12:42 10 13 mph 1013.1mb 61f
12:36 10 13 mph 1013.2mb 61f
12:30 13 14 mph 1013.2mb 61f
12:24 11 13 mph 1013.2mb 61f
12:18 10 11 mph 1013.3mb 61f
12:12 11 13 mph 1013.2mb 61f
12:06 11 13 mph 1013.2mb 61f
12:00 11 13 mph 1013.2mb 61f
11:54 11 13 mph 1013.2mb 60f
11:48 11 14 mph 1013.2mb 60f
11:42 11 14 mph 1013.1mb 60f
11:36 11 14 mph 1013.1mb 60f
11:30 11 14 mph 1013.1mb 60f
11:24 11 14 mph 1013.2mb 60f
11:18 11 14 mph 1013.2mb 60f
11:12 11 14 mph 1013.2mb 60f
11:06 11 13 mph 1013.3mb 60f
11:00 11 13 mph 1013.3mb 60f
10:54 11 14 mph 1013.2mb 60f
10:48 11 13 mph 1013.2mb 60f
10:42 11 13 mph 1013.1mb 60f
10:36 10 11 mph 1013.1mb 61f
10:30 10 11 mph 1013mb 61f
10:24 9 10 mph 1013.1mb 62f
10:18 9 10 mph 1012.9mb 62f
10:12 9 10 mph 1013.2mb 62f
10:06 9 10 mph 1013.1mb 61f
10:00 9 10 mph 1013.1mb 61f
9:54 9 10 mph 1013mb 60f
9:48 10 11 mph 1013mb 61f
9:42 9 11 mph 1012.8mb 61f
9:36 7 8 mph 1012.9mb 62f
9:30 6 8 mph 1012.8mb 62f
9:24 7 8 mph 1012.7mb 62f
9:18 7 9 mph 1012.6mb 62f
9:12 7 9 mph 1012.5mb 63f
9:06 6 9 mph 1012.6mb 63f
9:00 8 10 mph 1012.6mb 62f
8:54 7 9 mph 1012.5mb 63f
8:48 5 7 mph 1012.6mb 63f
8:42 6 7 mph 1012.6mb 63f
8:36 6 7 mph 1012.6mb 62f
8:30 6 8 mph 1012.4mb 61f
8:24 5 8 mph 1012.3mb 61f
8:18 5 7 mph 1012.3mb 62f
8:12 3 7 mph 1012.4mb 62f
8:06 6 8 mph 1012.3mb 61f
8:00 5 7 mph 1012.2mb 61f
7:54 5 7 mph 1012.2mb 61f
7:48 6 8 mph 1012.2mb -
7:42 6 7 mph 1012mb -
7:36 6 7 mph 1012.1mb -
7:30 5 6 mph 1011.9mb 60f
7:24 5 7 mph 1011.8mb 60f
7:18 6 7 mph 1011.8mb 60f
7:12 6 7 mph 1011.8mb 59f
7:06 6 7 mph 1011.7mb 59f
7:00 7
mph
1011.6mb 59f
6:54 6 7 mph 1011.5mb 59f
6:48 6 7 mph 1011.5mb 59f
6:42 6 7 mph 1011.5mb 59f
6:36 6 7 mph 1011.4mb 59f
6:30 6 7 mph 1011.3mb 59f
6:24 7 8 mph 1011.2mb 59f
6:18 8 9 mph 1011mb 59f
6:12 8 9 mph 1011mb 59f
6:06 8 9 mph 1010.9mb 59f
6:00 7 8 mph 1010.8mb 59f
5:54 7 8 mph 1010.8mb 59f
5:48 8 9 mph 1010.7mb 59f
5:42 8 9 mph 1010.7mb 59f
5:36 8 9 mph 1010.7mb 59f
5:30 9 10 mph 1010.6mb 59f
5:24 9 10 mph 1010.6mb 59f
5:18 9
mph
1010.6mb 59f
5:12 9 10 mph 1010.6mb 59f
5:06 9 11 mph 1010.5mb 59f
5:00 9 10 mph 1010.6mb 59f
4:54 9 11 mph 1010.4mb 59f
4:48 8 10 mph 1010.4mb 59f
4:42 8 10 mph 1010.3mb 59f
4:36 8 9 mph 1010.3mb 59f
4:30 8 10 mph 1010.3mb 59f
4:24 9 10 mph 1010.3mb 59f
4:18 9 10 mph 1010.1mb 59f
4:12 9 10 mph 1010.2mb 59f
4:06 8 10 mph 1010.1mb 59f
4:00 9 11 mph 1010.2mb 59f
3:54 7 9 mph 1010.1mb 59f
3:48 8 9 mph 1010.1mb 59f
3:42 9 10 mph 1010.1mb 59f
3:36 8 10 mph 1010mb 59f
3:30 9 10 mph 1010mb 59f
3:24 8 10 mph 1010mb 59f
3:18 8 9 mph 1010mb 59f
3:12 8 9 mph 1010mb 59f
3:06 8 9 mph 1009.9mb 59f
3:00 8 10 mph 1009.8mb 59f
2:54 8 10 mph 1009.9mb 60f
2:48 8 10 mph 1009.9mb 60f
2:42 9 10 mph 1010mb 60f
2:36 10 13 mph 1009.9mb 60f
2:30 9 13 mph 1009.9mb 60f
2:24 9 11 mph 1009.9mb 60f
2:18 8 10 mph 1009.9mb 60f
2:12 8 10 mph 1010.1mb 60f
2:06 8 9 mph 1010.1mb 60f
2:00 7 9 mph 1010.1mb 60f
1:54 7 8 mph 1010.1mb 60f
1:48 7 8 mph 1010.1mb 60f
1:42 5 6 mph 1010.2mb 60f
1:36 3 5 mph 1010.2mb 60f
1:30 2 3 mph 1010.2mb 60f
1:24 2 3 mph 1010.3mb 60f
1:18 3 5 mph 1010.3mb 60f
1:12 3
mph
1010.4mb 60f
1:06 2 3 mph 1010.5mb 60f
1:00 5 6 mph 1010.5mb 60f
12:54 5 6 mph 1010.3mb 60f
12:48 6 7 mph 1010.4mb 60f
12:42 6 7 mph 1010.4mb 60f
12:36 7
mph
1010.4mb 60f
12:30 6 7 mph 1010.5mb 60f
12:24 5
mph
1010.5mb 60f
12:18 5 6 mph 1010.4mb 60f
12:12 5 6 mph 1010.4mb 60f
12:06 5 6 mph 1010.4mb 60f
12:00 6
mph
1010.3mb 60f
sáb 04/30 11:54 6 7 mph 1010.3mb 60f
11:48 6 7 mph 1010.2mb 60f
11:42 5 7 mph 1010.3mb 59f
11:36 5 6 mph 1010mb 59f
11:30 6
mph
1009.9mb 59f
11:24 6 7 mph 1009.9mb 60f
11:18 5 6 mph 1009.9mb 59f
11:12 5 6 mph 1010mb 59f
11:06 6
mph
1010.1mb 59f
11:00 5 6 mph 1010.1mb 59f
10:54 5 6 mph 1010.1mb 59f
10:48  -  mph 1010.2mb 59f
10:42  -  mph 1010.1mb 59f
10:36  -  mph 1010mb 59f
10:30 5 6 mph 1009.9mb 59f
10:24 6 7 mph 1009.9mb 59f
10:18 6 7 mph 1009.9mb 59f
10:12 6 7 mph 1009.9mb 59f
10:06 6 7 mph 1009.9mb 59f
10:00 7 8 mph 1009.8mb 59f
9:54 7 8 mph 1009.9mb 59f
9:48 8
mph
1009.8mb 59f
9:42 8 9 mph 1009.8mb 59f
9:36 8 9 mph 1009.8mb 59f
9:30 8 9 mph 1009.6mb 59f
9:24 7 8 mph 1009.6mb 59f
9:18 7 8 mph 1009.6mb 59f
9:12 8 9 mph 1009.5mb 59f
9:06 9
mph
1009.4mb 59f
9:00 9 10 mph 1009.3mb 59f
8:54 10 11 mph 1009.2mb 59f
8:48 10 11 mph 1009.2mb 59f
8:42 11 13 mph 1009.1mb 59f
8:36 10 11 mph 1009.1mb 59f
8:30 8 10 mph 1009.1mb 59f
8:24 8 10 mph 1009mb 59f
8:18 9 13 mph 1008.8mb 59f
8:12 10 13 mph 1008.7mb 59f
8:06 13 14 mph 1008.6mb 59f
8:00 15 16 mph 1008.5mb 59f
7:54 14 15 mph 1008.5mb 59f
7:48  -  mph 1008.5mb -
7:42  -  mph 1008.5mb -
7:36  -  mph 1008.5mb -
7:30  -  mph 1008.5mb -
7:24  -  mph 1008.6mb -
7:18  -  mph 1008.7mb 60f
7:12  -  mph 1009mb 60f
7:06  -  mph 1009.1mb 61f
7:00 13 14 mph 1008.8mb 61f
6:54 14 15 mph 1008.6mb 61f
6:48 13 16 mph 1008.4mb -
6:42 15 17 mph 1008.3mb -
6:36 16 20 mph 1008.2mb -
6:30  -  mph 1008.1mb -
6:24  -  mph 1008.2mb -
6:18 17 20 mph 1008.2mb -
6:12 16 18 mph 1008.3mb -
6:06 16 17 mph 1008.2mb -
6:00 15 16 mph 1008.2mb 62f
5:54 16 17 mph 1008.2mb 62f
5:48 15 18 mph 1008.2mb -
5:42 16 18 mph 1008.2mb -
5:36 17 18 mph 1008.2mb -
5:30  -  mph 1008.3mb 64f
5:24  -  mph 1008.2mb 65f
5:18 15 18 mph 1008.1mb -
5:12 13 15 mph 1008.1mb -
5:06 11 15 mph 1008mb -
5:00  -  mph 1008.1mb 66f
4:54  -  mph 1008mb 66f
4:48  -  mph 1008mb -
4:42  -  mph 1008mb -
4:36  -  mph 1007.9mb -
4:00  -  mph - 65f
3:54  -  mph - 65f
3:48  -  mph - 65f
3:42  -  mph - 66f
3:36  -  mph - 66f
3:30 13 16 mph 1008.2mb 66f
3:24 14 17 mph 1008.3mb 66f
3:18 14 16 mph 1008.3mb -
3:12 14 16 mph 1008.3mb -
3:06 13 14 mph 1008.4mb -
3:00  -  mph 1008.5mb 66f
2:54  -  mph 1008.6mb 66f
2:48  -  mph 1008.6mb -
2:42  -  mph 1008.6mb -
2:36  -  mph 1008.7mb -
2:30 13 15 mph 1008.8mb 66f
2:24 11 15 mph 1008.9mb 65f
2:18 11 15 mph 1009mb 65f
2:12 13 15 mph 1009mb 65f
2:06 13 16 mph 1009mb 65f
2:00 13 16 mph 1009mb 65f
1:54 13 16 mph 1009.1mb 65f
1:48 11 15 mph 1009mb 65f
1:42 13 16 mph 1009mb 65f
1:36 13 16 mph 1009.1mb 65f
1:30 11 16 mph 1009.2mb 64f
1:24 13 16 mph 1009.2mb 64f
1:18 14 16 mph 1009.1mb 64f
1:12 14 16 mph 1009.2mb 64f
1:06 15 17 mph 1009.3mb 63f
1:00 15 17 mph 1009.3mb 63f
12:54 14 16 mph 1009.3mb 64f
12:48 14 16 mph 1009.4mb 64f
12:42 13 15 mph 1009.5mb 63f
12:36 14 17 mph 1009.4mb 63f
12:30 14 16 mph 1009.4mb 64f
12:24 14 16 mph 1009.4mb 63f
12:18 14 16 mph 1009.4mb 64f
12:12 13 15 mph 1009.6mb 64f
12:06 13 14 mph 1009.6mb 64f
12:00 11 14 mph 1009.8mb 64f
11:54 11 13 mph 1009.8mb 62f
11:48 10 13 mph 1009.7mb 61f
11:42 10 11 mph 1009.5mb 60f
11:36 10 11 mph 1009.6mb 63f
11:30 10 11 mph 1009.8mb 64f
11:24 10 11 mph 1009.7mb 64f
11:18 9 11 mph 1009.7mb 64f
11:12 9 10 mph 1009.7mb 64f
11:06 8 9 mph 1009.8mb 64f
11:00 8 9 mph 1009.8mb 62f
10:54 8 9 mph 1009.8mb 60f
10:48 8 9 mph 1009.7mb 60f
10:42 7 8 mph 1009.6mb 62f
10:36 7 8 mph 1009.9mb 62f
10:30 6 8 mph 1009.6mb 60f
10:24 6 7 mph 1009.6mb 61f
10:18 6
mph
1009.7mb 63f
10:12 6 7 mph 1009.9mb 63f
10:06 5 6 mph 1009.9mb 62f
10:00 5 6 mph 1009.9mb 61f
9:54 3 5 mph 1009.9mb 61f
9:48 3 5 mph 1009.9mb 60f
9:42 3 5 mph 1009.8mb 60f
9:36 2 3 mph 1010.1mb 61f
9:30 2
mph
1010.2mb 62f
9:24 2
mph
1010.1mb 62f
9:18 2 3 mph 1010.1mb 62f
9:12 1 2 mph 1010.1mb 61f
9:06 1 2 mph 1010.3mb 61f
9:00 2 3 mph 1010.4mb 61f
8:54 1 2 mph 1010.2mb 60f
8:48  -  2 mph 1010.3mb 60f
8:42 1 3 mph 1010.3mb 59f
8:36  -  3 mph 1010.3mb 59f
8:30  -  2 mph 1010.4mb 58f
8:24 1 3 mph 1010.4mb 58f
8:18 1 3 mph 1010.3mb 58f
8:12 2 3 mph 1010.1mb 57f
8:06 3 5 mph 1010.1mb 57f
8:00 2 3 mph 1010.2mb 57f
7:54 3 5 mph 1010.1mb 56f
7:48 3 5 mph 1010.1mb -
7:42 3 5 mph 1010mb -
7:36 3 6 mph 1009.9mb -
7:30 5 6 mph 1010mb 55f
7:24 2 5 mph 1009.8mb 56f
7:18 1 5 mph 1009.9mb 56f
7:12 2 6 mph 1010.2mb 55f
7:06 6 8 mph 1010.4mb 56f
7:00 3 7 mph 1010.3mb 57f
6:54 5 8 mph 1010mb 57f
6:48 3 6 mph 1010mb 58f
6:42 2 5 mph 1009.7mb 58f
6:36 2 3 mph 1009.3mb 58f
6:30  -  2 mph 1009.5mb 57f
6:24  -  1 mph 1009.4mb 57f
6:18  -  1 mph 1009.3mb 57f
6:12  -  1 mph 1009.3mb 57f
6:06  -  2 mph 1009.3mb 57f
6:00  -  2 mph 1009.3mb 57f
5:54 1 2 mph 1009.3mb 57f
5:48  -  2 mph 1009.3mb 57f
5:42  -  1 mph 1009.2mb 57f
5:36 2 5 mph 1009.2mb 57f
5:30 5 6 mph 1009mb 57f
5:24 3 6 mph 1009mb 57f
5:18 1 2 mph 1009.1mb 57f
5:12 2
mph
1009.3mb 57f
5:06 1 3 mph 1009.3mb 57f
5:00 1 3 mph 1009.4mb 57f
4:54 2 3 mph 1009.4mb 57f
4:48 2 3 mph 1009.6mb 57f
4:42 1 2 mph 1009.5mb 57f
4:36  -  2 mph 1009.5mb 57f
4:30 2 3 mph 1009.6mb 57f
4:24 3 5 mph 1009.6mb 57f
4:18 3 5 mph 1009.7mb 57f
4:12 3 5 mph 1009.9mb 57f
4:06 5 7 mph 1009.8mb 57f
4:00 6 7 mph 1009.9mb 57f
3:54 5 7 mph 1009.9mb 57f
3:48 6 7 mph 1009.9mb 57f
3:42 5 6 mph 1009.9mb 57f
3:36 5 7 mph 1010mb 57f
3:30 5 6 mph 1010mb 57f
3:24 5 7 mph 1009.9mb 57f
3:18 7 8 mph 1009.9mb 57f
3:12 7 8 mph 1010mb 57f
3:06 7 8 mph 1010.1mb 57f
3:00 7 8 mph 1010.1mb 57f
2:54 7 8 mph 1010.2mb 57f
2:48 6 8 mph 1010.4mb 57f
2:42 7 8 mph 1010.4mb 57f
2:36 8 9 mph 1010.4mb 57f
2:30 8 10 mph 1010.5mb 57f
2:24 8 10 mph 1010.6mb 57f
2:18 8 9 mph 1010.7mb 58f
2:12 8 9 mph 1010.7mb 57f
2:06 8 10 mph 1010.7mb 57f
2:00 7 9 mph 1010.8mb 57f
1:54 7 9 mph 1010.9mb 57f
1:48 9 10 mph 1010.9mb 57f
1:42 8 10 mph 1010.9mb 58f
1:36 7 9 mph 1011mb 57f
1:30 7 10 mph 1011.1mb 57f
1:24 8 10 mph 1011.2mb 57f
1:18 6 9 mph 1011.2mb 57f
1:12 8 9 mph 1011.2mb 57f
1:06 9 10 mph 1011.2mb 58f
1:00 8 10 mph 1011.2mb 58f
12:54 10 11 mph 1011.3mb 58f
12:48 8 10 mph 1011.4mb 58f
12:42 8 10 mph 1011.6mb 58f
12:36 6 8 mph 1011.6mb 58f
12:30 6 7 mph 1011.7mb 57f
12:24 6 8 mph 1011.8mb 57f
12:18 5 6 mph 1011.9mb 57f
12:12 6 7 mph 1011.9mb 57f
12:06 6 7 mph 1012mb 57f
12:00 6 8 mph 1012mb 57f
vie 04/29 11:54 6 8 mph 1011.8mb 57f
11:48 7 10 mph 1011.8mb 57f
11:42 7 9 mph 1011.8mb 57f
11:36 7 9 mph 1011.8mb 57f
11:30 7 9 mph 1011.8mb 57f
11:24 6 8 mph 1011.9mb 57f
11:18 6 8 mph 1012mb 57f
11:12 3 6 mph 1012mb 57f
11:06 3 5 mph 1012mb 57f
11:00 3 6 mph 1012.1mb 57f
10:54 5 6 mph 1012.2mb 57f
10:48 6 7 mph 1012.2mb -
10:42 6 8 mph 1012.3mb -
10:36 6 8 mph 1012.3mb -
10:30 7 8 mph 1012.3mb 58f
10:24 7 9 mph 1012.3mb 58f
10:18 7 8 mph 1012.5mb 58f
10:12 7 9 mph 1012.6mb 58f
10:06 6 7 mph 1012.6mb 58f
10:00 5 6 mph 1012.7mb 58f
9:54 5 6 mph 1012.6mb 58f
9:48 6 7 mph 1012.7mb 58f
9:42 6 7 mph 1012.8mb 58f
9:36 7 8 mph 1012.8mb 58f
9:30 6 8 mph 1012.8mb 58f
9:24 7 9 mph 1012.7mb 58f
9:18 8 9 mph 1012.7mb 58f
9:12 9 10 mph 1012.7mb 58f
9:06 9 10 mph 1012.8mb 58f
9:00 8 9 mph 1012.7mb 58f
8:54 8 10 mph 1012.8mb 59f
8:48 8 10 mph 1012.7mb 59f
8:42 9 10 mph 1012.7mb 59f
8:36 9 11 mph 1012.7mb 59f
8:30 9 11 mph 1012.6mb 59f
8:24 10 14 mph 1012.6mb 59f
8:18 6 9 mph 1012.6mb 59f
8:12 7 9 mph 1012.6mb 58f
8:06 7 9 mph 1012.5mb 58f
8:00  -  mph - 59f
7:54  -  mph - 59f
7:48 8 11 mph 1012.4mb -
7:42 8 11 mph 1012.4mb -
7:36 8 13 mph 1012.5mb -
7:30 8 9 mph 1012.4mb -
7:24 9 11 mph 1012.4mb -
7:18 11 15 mph 1012.3mb 59f
7:12 14 17 mph 1012.2mb 59f
7:06 9 14 mph 1012.3mb 59f
7:00  -  mph 1012.4mb 60f
6:54  -  mph 1012.4mb 60f
6:48 10 14 mph 1012.4mb -
6:42 10 16 mph 1012.4mb -
6:36 11 15 mph 1012.4mb -
6:30 10 15 mph 1012.4mb -
6:24 13 16 mph 1012.4mb -
6:18 10 14 mph 1012.6mb 62f